createdAt,value
2023-04-16T00:00:38.558Z,101639.13
2023-04-16T00:03:05.036Z,101645.75
2023-04-16T00:05:31.559Z,101648.47
2023-04-16T00:07:57.918Z,101651.13
2023-04-16T00:10:24.349Z,101652.72
2023-04-16T00:12:50.651Z,101651.13
2023-04-16T00:15:16.996Z,101653.44
2023-04-16T00:17:43.363Z,101657.75
2023-04-16T00:20:09.703Z,101642.25
2023-04-16T00:22:36.086Z,101649.63
2023-04-16T00:25:02.500Z,101644.84
2023-04-16T00:27:28.823Z,101650.34
2023-04-16T00:29:55.146Z,101649.19
2023-04-16T00:32:21.549Z,101656.56
2023-04-16T00:34:47.954Z,101652.69
2023-04-16T00:37:14.263Z,101650.31
2023-04-16T00:39:40.624Z,101655.75
2023-04-16T00:42:06.943Z,101655.09
2023-04-16T00:44:33.243Z,101656.19
2023-04-16T00:46:59.585Z,101646.91
2023-04-16T00:49:25.951Z,101647.28
2023-04-16T00:51:52.278Z,101643.34
2023-04-16T00:54:18.663Z,101649.63
2023-04-16T00:56:44.968Z,101642.19
2023-04-16T00:59:11.474Z,101650.72
2023-04-16T01:01:37.990Z,101646.41
2023-04-16T01:04:04.626Z,101643.41
2023-04-16T01:06:31.018Z,101643.47
2023-04-16T01:08:57.361Z,101650.47
2023-04-16T01:11:23.756Z,101647.28
2023-04-16T01:13:50.091Z,101641.53
2023-04-16T01:16:16.423Z,101646.06
2023-04-16T01:18:42.810Z,101644.13
2023-04-16T01:21:09.127Z,101650.84
2023-04-16T01:23:35.470Z,101645.28
2023-04-16T01:26:01.794Z,101653.91
2023-04-16T01:28:28.128Z,101648.91
2023-04-16T01:30:54.510Z,101648.84
2023-04-16T01:33:20.916Z,101644.56
2023-04-16T01:35:47.290Z,101647.69
2023-04-16T01:38:13.658Z,101642.25
2023-04-16T01:40:40.001Z,101654.22
2023-04-16T01:43:06.339Z,101640.34
2023-04-16T01:45:32.656Z,101638.75
2023-04-16T01:47:59.027Z,101654.22
2023-04-16T01:50:25.429Z,101658.06
2023-04-16T01:52:51.757Z,101658.19
2023-04-16T01:55:18.243Z,101662.06
2023-04-16T01:57:44.554Z,101661.19
2023-04-16T02:00:10.900Z,101664.28
2023-04-16T02:02:37.339Z,101668.69
2023-04-16T02:05:03.761Z,101670.63
2023-04-16T02:07:30.063Z,101674.63
2023-04-16T02:09:56.378Z,101671.41
2023-04-16T02:12:22.801Z,101679.63
2023-04-16T02:14:49.156Z,101679.22
2023-04-16T02:17:15.454Z,101676.75
2023-04-16T02:19:41.795Z,101672.66
2023-04-16T02:22:08.164Z,101671.84
2023-04-16T02:24:34.488Z,101678.13
2023-04-16T02:27:00.804Z,101676.84
2023-04-16T02:29:27.162Z,101671.41
2023-04-16T02:31:53.592Z,101674.56
2023-04-16T02:34:19.994Z,101672.63
2023-04-16T02:36:46.372Z,101672.97
2023-04-16T02:39:12.728Z,101671.91
2023-04-16T02:41:39.152Z,101665.91
2023-04-16T02:44:05.529Z,101672.97
2023-04-16T02:46:31.951Z,101665.97
2023-04-16T02:48:58.322Z,101667.56
2023-04-16T02:51:24.685Z,101668.00
2023-04-16T02:53:51.034Z,101672.97
2023-04-16T02:56:17.332Z,101673.84
2023-04-16T02:58:43.669Z,101672.25
2023-04-16T03:01:09.992Z,101668.00
2023-04-16T03:03:36.357Z,101668.75
2023-04-16T03:06:02.720Z,101667.28
2023-04-16T03:08:29.083Z,101667.56
2023-04-16T03:10:55.458Z,101669.94
2023-04-16T03:13:21.787Z,101673.06
2023-04-16T03:15:48.110Z,101669.84
2023-04-16T03:18:14.500Z,101674.66
2023-04-16T03:20:40.889Z,101680.94
2023-04-16T03:23:07.245Z,101674.25
2023-04-16T03:25:33.642Z,101682.41
2023-04-16T03:27:59.982Z,101673.03
2023-04-16T03:30:26.277Z,101687.50
2023-04-16T03:32:52.694Z,101679.34
2023-04-16T03:35:19.042Z,101681.59
2023-04-16T03:37:45.386Z,101677.41
2023-04-16T03:40:11.748Z,101673.72
2023-04-16T03:42:38.117Z,101673.84
2023-04-16T03:45:04.413Z,101673.50
2023-04-16T03:47:30.771Z,101668.81
2023-04-16T03:49:57.217Z,101670.72
2023-04-16T03:52:23.617Z,101668.75
2023-04-16T03:54:49.972Z,101669.53
2023-04-16T03:57:16.293Z,101674.56
2023-04-16T03:59:42.655Z,101678.56
2023-04-16T04:02:09.234Z,101673.94
2023-04-16T04:04:35.801Z,101689.41
2023-04-16T04:07:02.184Z,101677.34
2023-04-16T04:09:28.541Z,101684.00
2023-04-16T04:11:54.976Z,101689.41
2023-04-16T04:14:21.348Z,101679.34
2023-04-16T04:16:47.820Z,101688.28
2023-04-16T04:19:14.238Z,101695.56
2023-04-16T04:21:40.590Z,101695.22
2023-04-16T04:24:06.896Z,101701.47
2023-04-16T04:26:33.300Z,101697.28
2023-04-16T04:28:59.664Z,101696.00
2023-04-16T04:31:26.081Z,101693.28
2023-04-16T04:33:52.418Z,101690.91
2023-04-16T04:36:18.768Z,101700.66
2023-04-16T04:38:45.077Z,101701.09
2023-04-16T04:41:11.418Z,101702.59
2023-04-16T04:43:37.722Z,101703.38
2023-04-16T04:46:04.122Z,101703.09
2023-04-16T04:48:30.493Z,101698.00
2023-04-16T04:50:56.797Z,101704.22
2023-04-16T04:53:23.160Z,101704.56
2023-04-16T04:55:53.179Z,101715.53
2023-04-16T04:58:22.046Z,101710.41
2023-04-16T05:00:48.442Z,101717.44
2023-04-16T05:03:14.799Z,101708.81
2023-04-16T05:05:41.156Z,101708.81
2023-04-16T05:08:07.478Z,101699.47
2023-04-16T05:10:33.838Z,101709.63
2023-04-16T05:13:00.249Z,101711.22
2023-04-16T05:15:26.584Z,101712.72
2023-04-16T05:17:52.958Z,101720.56
2023-04-16T05:20:19.321Z,101724.38
2023-04-16T05:22:45.691Z,101731.78
2023-04-16T05:25:12.043Z,101737.34
2023-04-16T05:27:38.392Z,101736.44
2023-04-16T05:30:04.681Z,101740.03
2023-04-16T05:32:31.142Z,101738.53
2023-04-16T05:34:57.555Z,101745.47
2023-04-16T05:37:23.929Z,101743.88
2023-04-16T05:39:50.293Z,101745.47
2023-04-16T05:42:16.613Z,101750.88
2023-04-16T05:44:42.952Z,101753.59
2023-04-16T05:47:09.272Z,101756.63
2023-04-16T05:49:35.585Z,101748.53
2023-04-16T05:52:01.963Z,101748.09
2023-04-16T05:54:28.290Z,101757.81
2023-04-16T05:56:54.594Z,101754.31
2023-04-16T05:59:20.947Z,101758.16
2023-04-16T06:01:47.360Z,101762.38
2023-04-16T06:04:13.914Z,101766.28
2023-04-16T06:06:40.432Z,101766.28
2023-04-16T06:09:06.782Z,101769.72
2023-04-16T06:11:34.571Z,101765.34
2023-04-16T06:14:02.634Z,101765.34
2023-04-16T06:16:29.029Z,101768.81
2023-04-16T06:18:55.362Z,101764.94
2023-04-16T06:21:21.721Z,101760.06
2023-04-16T06:23:48.084Z,101763.69
2023-04-16T06:26:14.458Z,101759.53
2023-04-16T06:28:40.808Z,101754.03
2023-04-16T06:31:07.208Z,101760.69
2023-04-16T06:33:33.517Z,101765.75
2023-04-16T06:35:59.851Z,101765.63
2023-04-16T06:38:26.197Z,101773.16
2023-04-16T06:40:52.549Z,101773.44
2023-04-16T06:43:18.914Z,101773.44
2023-04-16T06:45:45.295Z,101770.31
2023-04-16T06:48:11.660Z,101768.28
2023-04-16T06:50:38.037Z,101766.78
2023-04-16T06:53:04.347Z,101770.38
2023-04-16T06:55:30.641Z,101769.38
2023-04-16T06:57:56.952Z,101772.13
2023-04-16T07:00:23.308Z,101771.56
2023-04-16T07:02:49.802Z,101774.19
2023-04-16T07:05:16.294Z,101772.25
2023-04-16T07:07:42.610Z,101769.41
2023-04-16T07:10:08.901Z,101784.69
2023-04-16T07:12:35.365Z,101778.13
2023-04-16T07:15:01.756Z,101788.13
2023-04-16T07:17:28.084Z,101785.75
2023-04-16T07:19:54.497Z,101775.97
2023-04-16T07:22:20.850Z,101780.97
2023-04-16T07:24:47.221Z,101781.06
2023-04-16T07:27:13.535Z,101787.66
2023-04-16T07:29:39.830Z,101779.53
2023-04-16T07:32:06.274Z,101787.78
2023-04-16T07:34:32.670Z,101790.38
2023-04-16T07:36:59.042Z,101787.63
2023-04-16T07:39:25.399Z,101786.34
2023-04-16T07:41:51.720Z,101794.22
2023-04-16T07:44:18.030Z,101783.25
2023-04-16T07:46:47.483Z,101788.75
2023-04-16T07:49:14.249Z,101787.41
2023-04-16T07:51:40.556Z,101790.84
2023-04-16T07:54:06.939Z,101793.16
2023-04-16T07:56:33.321Z,101789.41
2023-04-16T07:59:08.026Z,101793.56
2023-04-16T08:01:45.417Z,101794.41
2023-04-16T08:04:11.995Z,101799.88
2023-04-16T08:06:38.410Z,101795.47
2023-04-16T08:09:04.718Z,101799.03
2023-04-16T08:11:31.047Z,101800.25
2023-04-16T08:13:57.420Z,101798.19
2023-04-16T08:16:23.785Z,101806.19
2023-04-16T08:18:50.239Z,101800.78
2023-04-16T08:21:16.572Z,101804.09
2023-04-16T08:23:42.885Z,101802.53
2023-04-16T08:26:09.233Z,101800.84
2023-04-16T08:28:35.607Z,101803.75
2023-04-16T08:31:02.052Z,101806.28
2023-04-16T08:33:28.413Z,101797.69
2023-04-16T08:35:54.787Z,101804.47
2023-04-16T08:38:21.096Z,101805.75
2023-04-16T08:40:47.409Z,101806.22
2023-04-16T08:43:13.760Z,101811.97
2023-04-16T08:45:40.169Z,101806.78
2023-04-16T08:48:06.495Z,101813.44
2023-04-16T08:50:32.794Z,101809.50
2023-04-16T08:52:59.101Z,101816.53
2023-04-16T08:55:25.760Z,101814.19
2023-04-16T08:57:52.103Z,101817.38
2023-04-16T09:00:18.392Z,101811.50
2023-04-16T09:02:44.909Z,101818.75
2023-04-16T09:05:11.348Z,101827.88
2023-04-16T09:07:37.684Z,101807.84
2023-04-16T09:10:04.095Z,101818.47
2023-04-16T09:12:30.444Z,101822.94
2023-04-16T09:14:56.800Z,101818.47
2023-04-16T09:17:23.218Z,101818.63
2023-04-16T09:19:49.564Z,101809.66
2023-04-16T09:22:15.906Z,101817.63
2023-04-16T09:24:42.295Z,101815.44
2023-04-16T09:27:08.607Z,101820.38
2023-04-16T09:29:34.926Z,101817.72
2023-04-16T09:32:01.323Z,101820.72
2023-04-16T09:34:27.663Z,101810.88
2023-04-16T09:36:53.998Z,101816.66
2023-04-16T09:39:20.380Z,101820.56
2023-04-16T09:41:46.762Z,101811.75
2023-04-16T09:44:13.080Z,101811.94
2023-04-16T09:46:39.451Z,101825.81
2023-04-16T09:49:05.788Z,101831.09
2023-04-16T09:51:32.140Z,101833.34
2023-04-16T09:53:58.442Z,101837.91
2023-04-16T09:56:24.847Z,101832.28
2023-04-16T09:58:51.158Z,101824.81
2023-04-16T10:01:17.542Z,101825.19
2023-04-16T10:03:44.173Z,101831.50
2023-04-16T10:06:10.642Z,101834.31
2023-04-16T10:08:36.971Z,101833.94
2023-04-16T10:11:03.357Z,101842.69
2023-04-16T10:13:29.726Z,101838.06
2023-04-16T10:15:56.052Z,101825.69
2023-04-16T10:18:22.435Z,101823.31
2023-04-16T10:20:48.806Z,101832.34
2023-04-16T10:23:15.122Z,101824.56
2023-04-16T10:25:41.604Z,101831.91
2023-04-16T10:28:08.068Z,101822.69
2023-04-16T10:30:34.393Z,101821.91
2023-04-16T10:33:00.887Z,101823.03
2023-04-16T10:35:27.326Z,101827.97
2023-04-16T10:37:53.639Z,101826.88
2023-04-16T10:40:19.962Z,101822.63
2023-04-16T10:42:48.410Z,101829.53
2023-04-16T10:45:14.754Z,101831.16
2023-04-16T10:47:41.135Z,101827.25
2023-04-16T10:50:07.530Z,101823.44
2023-04-16T10:52:33.843Z,101827.44
2023-04-16T10:55:00.219Z,101824.72
2023-04-16T10:57:26.606Z,101829.16
2023-04-16T10:59:52.967Z,101832.41
2023-04-16T11:02:19.741Z,101828.56
2023-04-16T11:04:46.478Z,101825.56
2023-04-16T11:07:13.127Z,101822.91
2023-04-16T11:09:39.474Z,101818.94
2023-04-16T11:12:05.782Z,101816.66
2023-04-16T11:14:32.091Z,101810.78
2023-04-16T11:16:58.399Z,101813.56
2023-04-16T11:19:24.724Z,101809.72
2023-04-16T11:21:51.023Z,101810.34
2023-04-16T11:24:17.345Z,101812.03
2023-04-16T11:26:43.716Z,101804.75
2023-04-16T11:29:10.241Z,101796.94
2023-04-16T11:31:36.792Z,101803.94
2023-04-16T11:34:03.170Z,101808.94
2023-04-16T11:36:29.543Z,101803.94
2023-04-16T11:38:55.897Z,101800.84
2023-04-16T11:41:22.251Z,101804.19
2023-04-16T11:43:48.579Z,101797.78
2023-04-16T11:46:26.362Z,101801.81
2023-04-16T11:48:53.586Z,101796.56
2023-04-16T11:51:19.905Z,101787.84
2023-04-16T11:53:46.285Z,101790.50
2023-04-16T11:56:12.620Z,101799.09
2023-04-16T11:58:38.920Z,101788.09
2023-04-16T12:01:09.527Z,101779.09
2023-04-16T12:03:36.062Z,101790.06
2023-04-16T12:06:02.697Z,101788.03
2023-04-16T12:08:29.055Z,101784.84
2023-04-16T12:10:55.528Z,101791.28
2023-04-16T12:13:21.892Z,101785.09
2023-04-16T12:15:48.273Z,101785.94
2023-04-16T12:18:14.598Z,101785.59
2023-04-16T12:20:40.955Z,101777.19
2023-04-16T12:23:07.325Z,101779.72
2023-04-16T12:25:33.957Z,101777.91
2023-04-16T12:28:00.299Z,101780.50
2023-04-16T12:30:26.674Z,101775.84
2023-04-16T12:32:53.078Z,101782.72
2023-04-16T12:35:19.433Z,101777.63
2023-04-16T12:37:45.779Z,101773.00
2023-04-16T12:40:12.159Z,101773.84
2023-04-16T12:42:38.478Z,101769.09
2023-04-16T12:45:04.811Z,101771.41
2023-04-16T12:47:31.211Z,101773.50
2023-04-16T12:49:57.707Z,101768.03
2023-04-16T12:52:24.008Z,101770.06
2023-04-16T12:54:50.423Z,101769.09
2023-04-16T12:57:16.761Z,101771.75
2023-04-16T12:59:43.101Z,101761.59
2023-04-16T13:02:09.514Z,101756.69
2023-04-16T13:04:36.066Z,101767.06
2023-04-16T13:07:02.593Z,101756.16
2023-04-16T13:09:28.895Z,101748.59
2023-04-16T13:11:55.246Z,101755.59
2023-04-16T13:14:21.625Z,101750.91
2023-04-16T13:16:47.940Z,101749.44
2023-04-16T13:19:14.429Z,101756.78
2023-04-16T13:21:40.765Z,101749.91
2023-04-16T13:24:07.129Z,101745.78
2023-04-16T13:26:33.500Z,101753.69
2023-04-16T13:28:59.976Z,101745.72
2023-04-16T13:31:26.426Z,101753.75
2023-04-16T13:33:52.798Z,101744.53
2023-04-16T13:36:19.144Z,101738.81
2023-04-16T13:38:45.438Z,101738.44
2023-04-16T13:41:11.746Z,101733.00
2023-04-16T13:43:38.108Z,101729.00
2023-04-16T13:46:04.432Z,101736.44
2023-04-16T13:48:30.769Z,101731.34
2023-04-16T13:50:57.104Z,101732.59
2023-04-16T13:53:23.467Z,101729.94
2023-04-16T13:55:49.854Z,101726.03
2023-04-16T13:58:16.217Z,101728.75
2023-04-16T14:00:42.555Z,101725.38
2023-04-16T14:03:09.202Z,101732.66
2023-04-16T14:05:35.581Z,101725.38
2023-04-16T14:08:01.964Z,101721.75
2023-04-16T14:10:28.331Z,101729.16
2023-04-16T14:12:54.712Z,101728.38
2023-04-16T14:15:21.084Z,101723.97
2023-04-16T14:17:47.428Z,101714.97
2023-04-16T14:20:13.899Z,101728.16
2023-04-16T14:22:40.250Z,101724.03
2023-04-16T14:25:06.598Z,101722.81
2023-04-16T14:27:32.978Z,101717.47
2023-04-16T14:29:59.306Z,101716.91
2023-04-16T14:32:25.694Z,101724.56
2023-04-16T14:34:53.124Z,101713.78
2023-04-16T14:37:19.475Z,101721.66
2023-04-16T14:39:45.815Z,101727.41
2023-04-16T14:42:12.176Z,101715.31
2023-04-16T14:44:38.561Z,101709.44
2023-04-16T14:47:04.955Z,101705.09
2023-04-16T14:49:31.290Z,101712.47
2023-04-16T14:51:57.596Z,101712.09
2023-04-16T14:54:23.964Z,101712.03
2023-04-16T14:56:50.367Z,101709.66
2023-04-16T14:59:16.732Z,101706.44
2023-04-16T15:01:43.206Z,101708.31
2023-04-16T15:04:09.732Z,101703.66
2023-04-16T15:06:36.278Z,101714.97
2023-04-16T15:09:02.590Z,101712.31
2023-04-16T15:11:28.885Z,101717.69
2023-04-16T15:13:55.243Z,101703.09
2023-04-16T15:16:21.627Z,101714.19
2023-04-16T15:18:48.009Z,101711.91
2023-04-16T15:21:14.358Z,101697.50
2023-04-16T15:23:40.698Z,101698.25
2023-04-16T15:26:07.169Z,101703.00
2023-04-16T15:28:33.498Z,101701.69
2023-04-16T15:30:59.900Z,101698.53
2023-04-16T15:33:26.459Z,101711.75
2023-04-16T15:35:52.798Z,101700.06
2023-04-16T15:38:19.144Z,101695.03
2023-04-16T15:40:45.495Z,101690.41
2023-04-16T15:43:11.878Z,101692.81
2023-04-16T15:45:38.247Z,101691.00
2023-04-16T15:48:04.663Z,101701.31
2023-04-16T15:50:31.060Z,101688.69
2023-04-16T15:52:57.418Z,101689.00
2023-04-16T15:55:23.763Z,101696.44
2023-04-16T15:57:50.080Z,101690.34
2023-04-16T16:00:16.405Z,101695.03
2023-04-16T16:02:42.882Z,101695.16
2023-04-16T16:05:09.337Z,101689.78
2023-04-16T16:07:35.684Z,101693.78
2023-04-16T16:10:02.104Z,101688.47
2023-04-16T16:12:28.398Z,101691.66
2023-04-16T16:14:54.707Z,101697.13
2023-04-16T16:17:21.111Z,101694.31
2023-04-16T16:19:47.504Z,101689.53
2023-04-16T16:22:13.972Z,101694.84
2023-04-16T16:24:40.346Z,101686.59
2023-04-16T16:27:06.664Z,101681.13
2023-04-16T16:29:33.011Z,101681.69
2023-04-16T16:31:59.500Z,101690.22
2023-04-16T16:34:25.935Z,101686.28
2023-04-16T16:36:52.301Z,101690.94
2023-04-16T16:39:18.613Z,101685.94
2023-04-16T16:41:44.956Z,101686.91
2023-04-16T16:44:11.295Z,101685.09
2023-04-16T16:46:37.719Z,101687.97
2023-04-16T16:49:04.032Z,101693.34
2023-04-16T16:51:30.402Z,101692.94
2023-04-16T16:53:56.782Z,101689.19
2023-04-16T16:56:23.121Z,101693.94
2023-04-16T16:58:49.489Z,101690.44
2023-04-16T17:01:15.893Z,101690.63
2023-04-16T17:03:42.526Z,101697.25
2023-04-16T17:06:09.024Z,101692.19
2023-04-16T17:08:35.609Z,101696.72
2023-04-16T17:11:01.907Z,101699.38
2023-04-16T17:13:28.280Z,101686.44
2023-04-16T17:15:54.591Z,101695.88
2023-04-16T17:18:20.886Z,101680.34
2023-04-16T17:20:47.224Z,101694.47
2023-04-16T17:23:13.540Z,101691.00
2023-04-16T17:25:39.854Z,101688.94
2023-04-16T17:28:06.234Z,101690.00
2023-04-16T17:30:32.609Z,101697.56
2023-04-16T17:32:59.145Z,101693.22
2023-04-16T17:35:25.619Z,101687.44
2023-04-16T17:37:51.987Z,101698.53
2023-04-16T17:40:18.354Z,101697.91
2023-04-16T17:42:44.680Z,101693.66
2023-04-16T17:45:10.989Z,101701.13
2023-04-16T17:47:37.452Z,101698.81
2023-04-16T17:50:03.943Z,101700.28
2023-04-16T17:52:30.345Z,101696.00
2023-04-16T17:54:56.723Z,101702.81
2023-04-16T17:57:23.069Z,101699.25
2023-04-16T17:59:49.448Z,101707.34
2023-04-16T18:02:15.890Z,101699.31
2023-04-16T18:04:42.416Z,101705.53
2023-04-16T18:07:08.830Z,101707.47
2023-04-16T18:09:35.231Z,101702.94
2023-04-16T18:12:01.643Z,101708.72
2023-04-16T18:14:28.121Z,101705.94
2023-04-16T18:16:54.492Z,101702.94
2023-04-16T18:19:20.806Z,101719.84
2023-04-16T18:21:47.179Z,101716.97
2023-04-16T18:24:13.678Z,101721.06
2023-04-16T18:26:41.290Z,101718.13
2023-04-16T18:29:07.717Z,101715.09
2023-04-16T18:31:34.144Z,101713.56
2023-04-16T18:34:00.560Z,101720.28
2023-04-16T18:36:27.118Z,101719.38
2023-04-16T18:39:01.634Z,101714.00
2023-04-16T18:41:28.663Z,101723.78
2023-04-16T18:43:55.029Z,101715.09
2023-04-16T18:46:21.390Z,101721.31
2023-04-16T18:48:47.862Z,101721.59
2023-04-16T18:51:16.069Z,101729.03
2023-04-16T18:53:42.947Z,101729.50
2023-04-16T18:56:09.342Z,101726.00
2023-04-16T18:58:35.687Z,101736.56
2023-04-16T19:01:02.161Z,101733.78
2023-04-16T19:03:28.735Z,101740.97
2023-04-16T19:05:55.160Z,101735.88
2023-04-16T19:08:21.570Z,101736.91
2023-04-16T19:10:47.932Z,101742.16
2023-04-16T19:13:14.290Z,101739.63
2023-04-16T19:15:40.624Z,101742.03
2023-04-16T19:18:06.938Z,101742.38
2023-04-16T19:20:33.337Z,101743.53
2023-04-16T19:22:59.701Z,101744.38
2023-04-16T19:25:26.073Z,101747.94
2023-04-16T19:27:52.448Z,101751.78
2023-04-16T19:30:18.760Z,101748.19
2023-04-16T19:32:45.142Z,101749.16
2023-04-16T19:35:11.485Z,101747.81
2023-04-16T19:37:37.841Z,101749.38
2023-04-16T19:40:04.207Z,101749.78
2023-04-16T19:42:30.596Z,101749.44
2023-04-16T19:44:56.956Z,101754.09
2023-04-16T19:47:23.375Z,101757.16
2023-04-16T19:49:49.759Z,101761.25
2023-04-16T19:52:16.063Z,101760.13
2023-04-16T19:54:42.363Z,101758.06
2023-04-16T19:57:08.717Z,101756.50
2023-04-16T19:59:35.037Z,101750.59
2023-04-16T20:02:01.460Z,101760.06
2023-04-16T20:04:28.070Z,101761.88
2023-04-16T20:06:54.510Z,101761.31
2023-04-16T20:09:20.866Z,101760.81
2023-04-16T20:11:47.195Z,101766.63
2023-04-16T20:14:13.571Z,101765.00
2023-04-16T20:16:39.993Z,101761.56
2023-04-16T20:19:08.089Z,101758.22
2023-04-16T20:21:35.408Z,101766.69
2023-04-16T20:24:01.804Z,101762.41
2023-04-16T20:26:28.187Z,101767.88
2023-04-16T20:28:54.561Z,101770.25
2023-04-16T20:31:20.963Z,101769.81
2023-04-16T20:33:47.290Z,101765.97
2023-04-16T20:36:13.613Z,101769.47
2023-04-16T20:38:39.957Z,101770.97
2023-04-16T20:41:06.309Z,101767.94
2023-04-16T20:43:32.681Z,101767.88
2023-04-16T20:45:59.053Z,101769.41
2023-04-16T20:48:25.458Z,101769.41
2023-04-16T20:50:51.786Z,101767.53
2023-04-16T20:53:18.103Z,101764.13
2023-04-16T20:55:44.464Z,101769.03
2023-04-16T20:58:10.778Z,101768.75
2023-04-16T21:00:37.065Z,101768.75
2023-04-16T21:03:03.687Z,101772.53
2023-04-16T21:05:30.152Z,101765.50
2023-04-16T21:07:56.483Z,101765.56
2023-04-16T21:10:22.798Z,101769.03
2023-04-16T21:12:49.133Z,101761.66
2023-04-16T21:15:15.468Z,101758.97
2023-04-16T21:17:41.854Z,101762.47
2023-04-16T21:20:08.227Z,101764.81
2023-04-16T21:22:34.540Z,101755.06
2023-04-16T21:25:00.879Z,101758.16
2023-04-16T21:27:27.197Z,101756.25
2023-04-16T21:29:53.493Z,101753.06
2023-04-16T21:32:19.866Z,101747.31
2023-04-16T21:34:46.220Z,101753.97
2023-04-16T21:37:12.524Z,101748.50
2023-04-16T21:39:38.872Z,101751.94
2023-04-16T21:42:05.225Z,101759.78
2023-04-16T21:44:31.536Z,101755.94
2023-04-16T21:46:57.906Z,101751.28
2023-04-16T21:49:24.247Z,101751.94
2023-04-16T21:51:50.605Z,101752.75
2023-04-16T21:54:16.938Z,101755.06
2023-04-16T21:56:43.304Z,101755.50
2023-04-16T21:59:09.923Z,101749.66
2023-04-16T22:01:36.543Z,101753.47
2023-04-16T22:04:02.933Z,101760.22
2023-04-16T22:06:29.300Z,101744.56
2023-04-16T22:08:55.653Z,101757.84
2023-04-16T22:11:22.011Z,101750.47
2023-04-16T22:13:48.359Z,101752.78
2023-04-16T22:16:14.678Z,101748.25
2023-04-16T22:18:40.971Z,101750.91
2023-04-16T22:21:07.357Z,101747.78
2023-04-16T22:23:33.711Z,101748.88
2023-04-16T22:26:00.084Z,101750.06
2023-04-16T22:28:26.408Z,101748.88
2023-04-16T22:30:52.826Z,101743.84
2023-04-16T22:33:19.197Z,101740.72
2023-04-16T22:35:45.591Z,101743.94
2023-04-16T22:41:03.761Z,101745.38
2023-04-16T22:43:30.137Z,101740.78
2023-04-16T22:45:56.534Z,101737.94
2023-04-16T22:48:22.906Z,101740.72
2023-04-16T22:50:49.283Z,101736.88
2023-04-16T22:53:15.639Z,101736.09
2023-04-16T22:55:41.943Z,101741.22
2023-04-16T22:58:08.331Z,101739.16
2023-04-16T23:00:34.663Z,101741.88
2023-04-16T23:03:01.168Z,101743.50
2023-04-16T23:05:27.627Z,101744.63
2023-04-16T23:07:54.020Z,101750.13
2023-04-16T23:10:20.394Z,101754.47
2023-04-16T23:12:46.727Z,101755.63
2023-04-16T23:15:13.114Z,101752.09
2023-04-16T23:17:39.464Z,101759.00
2023-04-16T23:20:05.833Z,101748.66
2023-04-16T23:22:32.214Z,101747.75
2023-04-16T23:24:58.546Z,101752.09
2023-04-16T23:27:24.911Z,101748.19
2023-04-16T23:29:51.218Z,101752.78
2023-04-16T23:32:17.587Z,101751.75
2023-04-16T23:34:43.942Z,101753.28
2023-04-16T23:37:10.269Z,101755.19
2023-04-16T23:39:36.584Z,101755.56
2023-04-16T23:42:02.890Z,101748.53
2023-04-16T23:44:29.190Z,101750.91
2023-04-16T23:46:55.503Z,101757.63
2023-04-16T23:49:21.907Z,101754.47
2023-04-16T23:51:48.242Z,101758.81
2023-04-16T23:54:14.552Z,101752.28
2023-04-16T23:56:40.854Z,101750.63
2023-04-16T23:59:07.164Z,101753.63
